Time;durP1;ratioP1;P1;durP2;ratioP2;P2;SDS_P1;SDS_P2;PMS_P1;PMS_P2;Temp;Humidity;BMP_temperature;BMP_pressure;BME280_temperature;BME280_humidity;BME280_pressure;Samples;Min_cycle;Max_cycle;Signal;HPM_P1;HPM_P2
2023/04/16 00:01:58;;;;;;;6.70;3.30;;;;;;;13.75;52.15;94730.56;4997906;28;20121;-80
2023/04/16 00:04:24;;;;;;;16.52;3.40;;;;;;;13.63;52.42;94713.53;4993809;28;20034;-80
2023/04/16 00:06:49;;;;;;;11.35;3.50;;;;;;;13.71;52.63;94734.13;5030707;28;20050;-80
2023/04/16 00:09:15;;;;;;;10.45;3.33;;;;;;;13.33;52.54;94683.88;5013751;28;20033;-80
2023/04/16 00:11:40;;;;;;;8.48;4.07;;;;;;;13.56;52.62;94705.97;5014053;28;20037;-80
2023/04/16 00:14:05;;;;;;;15.63;3.40;;;;;;;13.55;52.46;94715.06;5031636;28;20025;-80
2023/04/16 00:16:31;;;;;;;8.02;3.42;;;;;;;13.11;52.31;94651.88;5013577;28;20052;-80
2023/04/16 00:18:56;;;;;;;7.47;3.40;;;;;;;13.42;52.85;94703.38;5031414;28;20115;-80
2023/04/16 00:21:22;;;;;;;6.22;3.50;;;;;;;13.14;52.83;94676.03;5031767;28;20060;-80
2023/04/16 00:23:47;;;;;;;12.20;3.45;;;;;;;12.37;53.01;94559.06;5031419;28;20037;-80
2023/04/16 00:26:13;;;;;;;9.77;3.90;;;;;;;13.08;53.06;94679.09;5021223;28;20021;-80
2023/04/16 00:28:38;;;;;;;10.43;3.78;;;;;;;12.76;53.34;94640.16;5022677;28;20036;-80
2023/04/16 00:31:04;;;;;;;11.00;3.60;;;;;;;13.02;53.50;94693.63;5001346;28;20041;-80
2023/04/16 00:33:29;;;;;;;8.15;3.40;;;;;;;12.81;53.46;94663.22;4994339;28;20488;-80
2023/04/16 00:35:55;;;;;;;11.90;4.50;;;;;;;12.74;53.39;94655.63;4977666;28;20038;-80
2023/04/16 00:38:20;;;;;;;10.18;4.20;;;;;;;13.08;53.52;94701.19;5012032;28;20076;-80
2023/04/16 00:40:46;;;;;;;7.05;4.03;;;;;;;13.21;53.56;94722.75;5011787;28;20029;-80
2023/04/16 00:43:20;;;;;;;9.93;4.28;;;;;;;13.19;53.71;94717.75;4994381;28;20132;-80
2023/04/16 00:45:46;;;;;;;10.65;4.28;;;;;;;12.64;53.85;94635.34;5010943;28;20124;-80
2023/04/16 00:48:11;;;;;;;14.07;4.10;;;;;;;13.03;53.55;94703.97;5011764;28;20070;-80
2023/04/16 00:50:37;;;;;;;10.02;3.67;;;;;;;12.85;53.56;94680.94;4997451;28;20025;-80
2023/04/16 00:53:02;;;;;;;9.77;3.80;;;;;;;12.96;53.50;94705.47;5031351;28;20025;-80
2023/04/16 00:55:28;;;;;;;11.43;3.80;;;;;;;13.00;53.88;94725.06;4991595;28;20566;-80
2023/04/16 00:57:54;;;;;;;17.77;7.30;;;;;;;12.28;54.45;94647.81;5019401;28;20112;-80
2023/04/16 01:00:20;;;;;;;23.35;10.13;;;;;;;11.77;54.70;94582.34;5013639;28;20408;-80
2023/04/16 01:02:45;;;;;;;23.25;9.10;;;;;;;12.52;55.23;94720.19;5013610;28;20037;-80
2023/04/16 01:05:11;;;;;;;13.85;7.93;;;;;;;11.93;54.62;94631.47;5031971;28;20087;-80
2023/04/16 01:07:36;;;;;;;18.15;8.63;;;;;;;12.63;54.47;94729.56;5013462;28;20052;-79
2023/04/16 01:10:02;;;;;;;13.75;8.15;;;;;;;12.40;54.27;94677.34;5015731;28;20053;-80
2023/04/16 01:12:28;;;;;;;17.42;8.30;;;;;;;11.81;53.50;94575.38;5014364;28;20021;-80
2023/04/16 01:14:54;;;;;;;15.23;7.47;;;;;;;12.54;53.74;94694.09;5016759;28;20073;-80
2023/04/16 01:17:19;;;;;;;15.88;7.60;;;;;;;12.18;53.59;94638.19;5014228;28;20026;-80
2023/04/16 01:19:44;;;;;;;18.67;6.65;;;;;;;12.41;52.66;94672.81;5015466;28;20412;-80
2023/04/16 01:22:10;;;;;;;16.48;6.90;;;;;;;12.74;51.66;94722.94;5013696;28;20034;-80
2023/04/16 01:24:35;;;;;;;14.50;6.97;;;;;;;12.58;51.95;94699.63;5013631;28;20496;-80
2023/04/16 01:27:01;;;;;;;12.30;6.85;;;;;;;11.83;52.11;94589.13;5012314;28;20030;-80
2023/04/16 01:29:26;;;;;;;16.45;7.32;;;;;;;12.61;52.13;94701.66;4998593;28;20035;-80
2023/04/16 01:31:53;;;;;;;12.88;6.88;;;;;;;12.75;52.06;94724.50;5012426;28;20045;-80
2023/04/16 01:34:18;;;;;;;21.17;7.20;;;;;;;12.35;51.86;94656.19;4998506;28;20021;-80
2023/04/16 01:36:44;;;;;;;13.45;6.80;;;;;;;12.42;52.28;94671.75;5015330;28;20510;-80
2023/04/16 01:39:14;;;;;;;13.65;6.93;;;;;;;12.49;52.80;94701.38;5015356;28;20053;-80
2023/04/16 01:41:40;;;;;;;18.30;6.78;;;;;;;12.15;52.43;94652.03;5015337;28;20044;-80
2023/04/16 01:44:05;;;;;;;14.23;6.13;;;;;;;12.51;52.53;94709.88;5007470;28;20188;-80
2023/04/16 01:46:32;;;;;;;14.07;6.38;;;;;;;12.51;52.56;94710.63;5009039;28;20026;-80
2023/04/16 01:48:58;;;;;;;17.63;6.10;;;;;;;12.47;52.83;94706.22;5016458;28;20029;-80
2023/04/16 01:51:24;;;;;;;18.13;5.78;;;;;;;12.24;52.91;94679.53;5002398;28;20041;-80
2023/04/16 01:53:50;;;;;;;13.88;6.38;;;;;;;12.15;52.69;94660.03;5008960;28;20484;-80
2023/04/16 01:56:15;;;;;;;14.38;6.65;;;;;;;12.38;52.84;94703.44;5015642;28;20509;-80
2023/04/16 01:58:41;;;;;;;17.98;6.30;;;;;;;12.33;53.15;94700.88;5017496;28;20045;-79
2023/04/16 02:01:08;;;;;;;10.63;6.13;;;;;;;12.16;53.47;94684.72;5018552;28;20030;-79
2023/04/16 02:03:33;;;;;;;13.77;5.75;;;;;;;12.20;53.72;94704.34;5020114;28;20385;-80
2023/04/16 02:06:00;;;;;;;19.77;6.93;;;;;;;11.95;53.77;94666.50;5017296;28;20132;-79
2023/04/16 02:08:25;;;;;;;18.00;6.72;;;;;;;11.94;53.46;94664.16;5004715;28;20070;-79
2023/04/16 02:10:51;;;;;;;17.00;6.90;;;;;;;11.67;53.46;94635.66;5005939;28;20038;-79
2023/04/16 02:13:16;;;;;;;23.05;7.72;;;;;;;11.84;53.16;94659.78;5006832;28;20033;-79
2023/04/16 02:15:46;;;;;;;22.63;7.57;;;;;;;11.79;53.25;94648.47;5005044;28;20030;-79
2023/04/16 02:18:12;;;;;;;25.65;7.60;;;;;;;11.46;52.81;94597.22;5003700;28;20576;-79
2023/04/16 02:20:41;;;;;;;16.00;6.93;;;;;;;11.66;52.97;94625.31;5004054;28;20088;-79
2023/04/16 02:23:07;;;;;;;19.20;7.70;;;;;;;11.33;52.93;94579.41;5003891;28;20527;-79
2023/04/16 02:25:40;;;;;;;19.25;6.60;;;;;;;11.95;53.00;94665.72;5002917;28;20572;-79
2023/04/16 02:28:11;;;;;;;22.13;8.25;;;;;;;11.75;53.47;94637.63;5023170;28;20030;-79
2023/04/16 02:30:38;;;;;;;13.70;7.22;;;;;;;12.06;53.59;94685.69;5030218;28;20029;-78
2023/04/16 02:33:04;;;;;;;18.90;7.45;;;;;;;11.80;53.76;94660.69;5027970;28;20041;-80
2023/04/16 02:35:33;;;;;;;14.05;7.10;;;;;;;11.41;53.90;94584.84;5029136;28;20115;-79
2023/04/16 02:38:00;;;;;;;14.90;6.50;;;;;;;12.08;53.97;94686.19;5030218;28;20104;-79
2023/04/16 02:40:26;;;;;;;14.73;7.13;;;;;;;12.10;53.95;94688.56;5023547;28;20029;-79
2023/04/16 02:42:52;;;;;;;18.30;7.30;;;;;;;11.75;54.16;94636.88;5021990;28;20038;-79
2023/04/16 02:45:18;;;;;;;18.42;7.25;;;;;;;12.07;54.32;94681.97;5020461;28;20461;-79
2023/04/16 02:47:43;;;;;;;15.75;6.05;;;;;;;11.64;53.45;94604.34;5020930;28;20037;-79
2023/04/16 02:50:09;;;;;;;16.25;6.53;;;;;;;12.21;53.22;94689.94;5020860;28;20030;-79
2023/04/16 02:52:35;;;;;;;18.08;5.80;;;;;;;11.87;53.15;94640.63;5019239;28;20480;-79
2023/04/16 02:55:00;;;;;;;15.35;6.55;;;;;;;12.23;52.95;94677.94;5020581;28;20053;-79
2023/04/16 02:57:26;;;;;;;11.93;5.80;;;;;;;12.23;52.80;94679.81;5018756;28;20109;-79
2023/04/16 02:59:51;;;;;;;12.50;5.85;;;;;;;11.86;52.90;94625.75;5005746;28;20058;-79
2023/04/16 03:02:16;;;;;;;16.55;6.35;;;;;;;11.43;52.94;94561.47;5014965;28;20030;-79
2023/04/16 03:04:42;;;;;;;11.88;5.65;;;;;;;11.95;52.69;94637.28;5017961;28;20030;-79
2023/04/16 03:07:08;;;;;;;14.48;4.95;;;;;;;12.17;52.66;94671.16;5017558;28;20054;-79
2023/04/16 03:09:34;;;;;;;9.93;4.47;;;;;;;11.66;52.79;94602.19;5017707;28;20493;-79
2023/04/16 03:12:03;;;;;;;11.45;4.47;;;;;;;12.16;52.39;94676.75;5018880;28;20063;-79
2023/04/16 03:14:29;;;;;;;12.45;3.60;;;;;;;12.15;51.86;94678.63;5016518;28;20420;-80
2023/04/16 03:16:55;;;;;;;10.82;3.80;;;;;;;11.68;51.99;94609.84;5003544;28;20089;-79
2023/04/16 03:19:20;;;;;;;8.10;3.58;;;;;;;11.55;52.17;94601.59;5020526;28;20037;-79
2023/04/16 03:21:46;;;;;;;8.70;3.40;;;;;;;12.11;52.20;94687.50;5018480;28;20040;-79
2023/04/16 03:24:12;;;;;;;6.47;3.25;;;;;;;12.05;52.49;94684.16;5018427;28;20117;-79
2023/04/16 03:26:38;;;;;;;7.53;2.80;;;;;;;12.06;52.84;94684.91;5018324;28;20049;-79
2023/04/16 03:29:03;;;;;;;6.72;2.67;;;;;;;11.63;52.15;94610.75;5007888;28;20035;-79
2023/04/16 03:31:29;;;;;;;4.35;2.75;;;;;;;12.10;52.29;94684.03;4995981;28;20046;-80
2023/04/16 03:33:54;;;;;;;8.75;3.05;;;;;;;11.99;52.41;94654.19;5009331;28;20041;-79
2023/04/16 03:36:21;;;;;;;10.45;3.90;;;;;;;12.02;52.36;94678.63;5017369;28;20026;-79
2023/04/16 03:38:47;;;;;;;8.98;3.95;;;;;;;11.94;52.10;94650.84;5000838;28;20134;-79
2023/04/16 03:41:12;;;;;;;10.77;4.30;;;;;;;11.56;52.12;94589.09;5014749;28;20065;-79
2023/04/16 03:43:38;;;;;;;11.23;3.90;;;;;;;12.09;52.12;94677.16;4998036;28;20042;-79
2023/04/16 03:46:03;;;;;;;15.15;5.35;;;;;;;11.80;52.68;94626.94;4997224;28;20105;-79
2023/04/16 03:48:29;;;;;;;15.75;6.75;;;;;;;12.28;52.41;94696.44;5017405;28;20030;-79
2023/04/16 03:50:54;;;;;;;15.43;7.97;;;;;;;11.98;52.00;94667.78;5015135;28;20034;-79
2023/04/16 03:53:20;;;;;;;21.17;8.82;;;;;;;11.64;51.78;94652.16;5018055;28;20147;-79
2023/04/16 03:55:49;;;;;;;22.35;8.60;;;;;;;11.71;51.96;94681.78;5015730;28;20037;-79
2023/04/16 03:58:15;;;;;;;26.10;9.77;;;;;;;11.21;52.32;94632.97;5014933;28;20060;-79
2023/04/16 04:00:41;;;;;;;24.40;9.10;;;;;;;11.43;52.13;94680.94;5017522;28;20103;-79
2023/04/16 04:03:07;;;;;;;19.67;9.45;;;;;;;10.56;51.85;94563.16;5015330;28;20037;-79
2023/04/16 04:05:39;;;;;;;24.42;8.88;;;;;;;11.71;50.90;94703.03;5014917;28;20092;-80
2023/04/16 04:08:05;;;;;;;18.05;8.05;;;;;;;11.45;50.82;94713.28;5030075;28;20065;-79
2023/04/16 04:10:34;;;;;;;17.38;8.27;;;;;;;11.41;50.54;94691.06;5018309;28;20072;-79
2023/04/16 04:13:02;;;;;;;17.23;8.20;;;;;;;11.43;50.79;94712.00;5018638;28;20103;-79
2023/04/16 04:15:28;;;;;;;15.82;7.57;;;;;;;11.33;50.30;94701.53;5017659;28;20124;-79
2023/04/16 04:17:54;;;;;;;19.77;7.07;;;;;;;11.46;49.69;94700.78;5019070;28;20126;-79
2023/04/16 04:20:19;;;;;;;13.38;6.38;;;;;;;11.57;49.75;94704.88;5018543;28;20091;-79
2023/04/16 04:22:45;;;;;;;21.55;7.85;;;;;;;11.68;50.00;94719.56;5018243;28;20044;-79
2023/04/16 04:25:10;;;;;;;16.95;6.60;;;;;;;11.29;49.76;94650.88;5036647;28;20043;-80
2023/04/16 04:27:36;;;;;;;13.60;7.22;;;;;;;11.47;49.80;94667.84;5033248;28;20492;-79
2023/04/16 04:30:03;;;;;;;21.45;7.80;;;;;;;11.92;49.79;94730.06;5002925;28;20026;-79
2023/04/16 04:32:29;;;;;;;16.90;7.60;;;;;;;11.71;49.52;94697.72;5036486;28;20118;-80
2023/04/16 04:34:55;;;;;;;17.35;7.82;;;;;;;11.87;49.25;94719.53;5010975;28;20034;-79
2023/04/16 04:37:20;;;;;;;15.35;6.65;;;;;;;12.05;49.10;94726.69;5007134;28;20041;-79
2023/04/16 04:39:45;;;;;;;21.73;6.82;;;;;;;11.80;48.80;94698.66;5036779;28;20098;-79
2023/04/16 04:42:11;;;;;;;15.07;6.18;;;;;;;11.88;48.64;94715.81;5022042;28;20091;-79
2023/04/16 04:44:36;;;;;;;13.80;6.78;;;;;;;11.93;48.88;94719.16;5021899;28;20037;-79
2023/04/16 04:47:02;;;;;;;15.18;6.72;;;;;;;11.84;48.83;94696.19;5040895;28;20085;-79
2023/04/16 04:49:27;;;;;;;16.05;6.53;;;;;;;11.92;49.43;94698.97;5022711;28;20033;-79
2023/04/16 04:51:53;;;;;;;15.70;6.63;;;;;;;11.75;49.42;94664.19;5022713;28;20482;-79
2023/04/16 04:54:18;;;;;;;13.18;6.50;;;;;;;11.83;49.62;94682.13;5040219;28;20041;-79
2023/04/16 04:56:46;;;;;;;14.35;5.88;;;;;;;12.28;49.35;94740.88;5022765;28;20057;-79
2023/04/16 04:59:12;;;;;;;16.20;6.38;;;;;;;12.33;49.32;94735.47;5021829;28;20033;-80
2023/04/16 05:01:37;;;;;;;17.25;6.35;;;;;;;11.53;48.90;94622.31;5022159;28;20116;-79
2023/04/16 05:04:03;;;;;;;11.50;5.20;;;;;;;12.43;49.09;94750.44;5021365;28;20492;-79
2023/04/16 05:06:29;;;;;;;24.27;6.28;;;;;;;12.02;48.90;94686.59;5039880;28;20560;-79
2023/04/16 05:08:54;;;;;;;12.48;5.50;;;;;;;11.83;49.17;94641.47;5021996;28;20033;-79
2023/04/16 05:11:20;;;;;;;16.73;5.25;;;;;;;11.89;49.20;94650.97;5015406;28;20036;-79
2023/04/16 05:13:45;;;;;;;13.82;5.80;;;;;;;12.39;49.33;94734.28;4986510;28;20045;-79
2023/04/16 05:16:11;;;;;;;17.65;6.38;;;;;;;12.41;48.96;94726.00;5012951;28;20064;-79
2023/04/16 05:18:36;;;;;;;21.77;7.68;;;;;;;12.40;48.38;94716.44;5022229;28;20025;-79
2023/04/16 05:21:02;;;;;;;16.02;8.20;;;;;;;12.32;48.26;94696.66;5021803;28;20447;-79
2023/04/16 05:23:28;;;;;;;21.60;7.30;;;;;;;11.16;48.40;94537.50;5021495;28;20527;-79
2023/04/16 05:25:53;;;;;;;19.17;6.95;;;;;;;12.00;48.37;94686.88;5039247;28;20105;-79
2023/04/16 05:28:18;;;;;;;21.30;6.57;;;;;;;12.19;49.20;94740.78;5022146;28;20101;-79
2023/04/16 05:30:44;;;;;;;25.67;6.95;;;;;;;11.93;49.20;94678.50;5023760;28;20176;-79
2023/04/16 05:33:10;;;;;;;24.15;6.50;;;;;;;12.27;48.58;94702.88;5020491;28;20036;-80
2023/04/16 05:35:36;;;;;;;18.60;6.32;;;;;;;12.41;48.57;94739.31;5020368;28;20025;-79
2023/04/16 05:38:03;;;;;;;11.57;6.00;;;;;;;11.98;48.40;94655.28;5021962;28;20036;-79
2023/04/16 05:40:28;;;;;;;14.70;6.15;;;;;;;12.63;48.19;94745.50;5022429;28;20029;-79
2023/04/16 05:42:54;;;;;;;13.65;5.90;;;;;;;12.01;48.20;94651.25;5021681;28;20033;-79
2023/04/16 05:45:19;;;;;;;17.90;6.13;;;;;;;12.03;47.79;94662.38;5021207;28;20018;-79
2023/04/16 05:47:45;;;;;;;23.08;8.15;;;;;;;12.63;47.46;94721.56;5039549;28;20072;-79
2023/04/16 05:50:10;;;;;;;18.73;8.15;;;;;;;12.04;47.48;94626.75;5021769;28;20091;-79
2023/04/16 05:52:36;;;;;;;16.25;6.15;;;;;;;12.46;48.03;94733.88;5011967;28;20080;-79
2023/04/16 05:55:01;;;;;;;16.83;7.53;;;;;;;12.14;48.92;94732.06;5018672;28;20026;-79
2023/04/16 05:57:29;;;;;;;25.63;6.68;;;;;;;12.02;48.15;94679.41;5031134;28;20172;-79
2023/04/16 05:59:55;;;;;;;15.45;6.05;;;;;;;12.30;48.12;94706.78;5039496;28;20466;-79
2023/04/16 06:02:21;;;;;;;11.93;6.88;;;;;;;12.66;48.07;94742.25;5039195;28;20033;-79
2023/04/16 06:04:46;;;;;;;17.48;7.22;;;;;;;12.01;47.89;94643.28;5021401;28;20067;-79
2023/04/16 06:07:12;;;;;;;16.23;6.63;;;;;;;12.18;47.86;94682.56;5017453;28;20057;-79
2023/04/16 06:09:37;;;;;;;18.25;6.63;;;;;;;12.75;47.90;94745.00;5018634;28;20448;-80
2023/04/16 06:12:03;;;;;;;14.07;6.85;;;;;;;12.88;47.44;94741.56;5017084;28;20061;-79
2023/04/16 06:14:28;;;;;;;13.93;6.72;;;;;;;12.41;47.37;94662.19;5004809;28;20053;-79
2023/04/16 06:16:54;;;;;;;16.35;6.30;;;;;;;12.43;46.72;94665.34;5022236;28;20030;-79
2023/04/16 06:19:19;;;;;;;16.65;6.53;;;;;;;12.12;47.19;94617.31;5016254;28;20113;-79
2023/04/16 06:21:45;;;;;;;23.33;6.72;;;;;;;12.78;47.03;94720.47;5001406;28;20036;-79
2023/04/16 06:24:10;;;;;;;18.52;8.23;;;;;;;12.72;47.35;94717.13;5007386;28;20033;-79
2023/04/16 06:26:35;;;;;;;18.60;7.80;;;;;;;12.59;47.51;94680.66;5019081;28;20034;-79
2023/04/16 06:29:01;;;;;;;20.58;8.27;;;;;;;12.64;47.81;94682.47;5018810;28;20053;-79
2023/04/16 06:31:26;;;;;;;22.85;7.22;;;;;;;13.03;47.39;94735.91;5017933;28;20066;-79
2023/04/16 06:33:52;;;;;;;10.82;6.10;;;;;;;12.86;47.56;94730.41;5018825;28;20121;-79
2023/04/16 06:36:17;;;;;;;11.68;6.13;;;;;;;12.67;47.17;94671.19;5017273;28;20030;-78
2023/04/16 06:38:43;;;;;;;12.02;6.07;;;;;;;12.93;46.83;94674.91;5018383;28;20026;-78
2023/04/16 06:41:08;;;;;;;19.10;6.25;;;;;;;12.91;47.21;94647.78;5002203;28;20091;-79
2023/04/16 06:43:34;;;;;;;12.60;5.97;;;;;;;13.34;48.00;94727.28;5015757;28;20073;-79
2023/04/16 06:45:59;;;;;;;12.50;5.28;;;;;;;13.00;47.66;94658.53;4999579;28;20029;-79
2023/04/16 06:48:26;;;;;;;16.77;6.10;;;;;;;12.81;47.32;94594.03;5019182;28;20061;-79
2023/04/16 06:50:51;;;;;;;11.95;5.20;;;;;;;13.69;47.55;94710.44;5018636;28;20495;-79
2023/04/16 06:53:17;;;;;;;15.65;5.32;;;;;;;13.35;47.86;94670.28;5017083;28;20026;-78
2023/04/16 06:55:42;;;;;;;9.80;4.80;;;;;;;13.68;47.94;94705.41;5018967;28;20021;-79
2023/04/16 06:58:07;;;;;;;13.52;5.28;;;;;;;13.76;47.64;94694.81;5018834;28;20584;-79
2023/04/16 07:00:33;;;;;;;9.63;4.38;;;;;;;13.96;48.16;94712.16;5017347;28;20057;-79
2023/04/16 07:03:00;;;;;;;9.70;3.83;;;;;;;13.70;47.75;94658.72;5016397;28;20034;-79
2023/04/16 07:05:25;;;;;;;6.25;3.45;;;;;;;14.03;48.05;94693.88;5018397;28;20520;-79
2023/04/16 07:07:51;;;;;;;9.38;4.03;;;;;;;13.89;47.95;94658.50;5017228;28;20101;-79
2023/04/16 07:10:17;;;;;;;10.63;4.72;;;;;;;13.95;48.01;94646.63;5016969;28;20038;-78
2023/04/16 07:12:42;;;;;;;10.80;4.97;;;;;;;14.28;47.95;94695.06;5003327;28;20034;-79
2023/04/16 07:15:08;;;;;;;14.30;5.65;;;;;;;14.42;48.15;94701.13;4996964;28;20050;-79
2023/04/16 07:17:34;;;;;;;16.70;4.60;;;;;;;13.87;48.49;94620.72;5014615;28;20030;-78
2023/04/16 07:19:59;;;;;;;14.88;5.22;;;;;;;14.58;48.00;94726.28;5016966;28;20083;-79
2023/04/16 07:22:25;;;;;;;13.82;4.55;;;;;;;14.40;47.88;94690.00;5001118;28;20041;-80
2023/04/16 07:24:50;;;;;;;10.05;4.90;;;;;;;14.68;48.25;94726.00;5018114;28;20042;-78
2023/04/16 07:27:16;;;;;;;12.35;4.53;;;;;;;14.59;48.17;94709.19;5018953;28;20025;-78
2023/04/16 07:29:41;;;;;;;11.10;4.00;;;;;;;14.59;48.33;94689.72;5013108;28;20057;-79
2023/04/16 07:32:07;;;;;;;9.75;4.20;;;;;;;14.57;48.40;94691.94;4998169;28;20064;-78
2023/04/16 07:34:32;;;;;;;14.23;4.03;;;;;;;14.89;48.36;94720.09;4998198;28;20467;-79
2023/04/16 07:36:58;;;;;;;8.75;4.00;;;;;;;14.95;47.64;94724.22;4997168;28;20037;-79
2023/04/16 07:39:23;;;;;;;10.32;4.32;;;;;;;14.54;47.00;94652.50;4997122;28;20462;-79
2023/04/16 07:41:48;;;;;;;9.02;3.78;;;;;;;14.90;46.68;94698.44;5008460;28;20505;-78
2023/04/16 07:44:14;;;;;;;8.50;3.95;;;;;;;14.87;46.62;94690.28;5017995;28;20034;-79
2023/04/16 07:46:39;;;;;;;9.18;3.58;;;;;;;14.77;47.61;94677.22;5016759;28;20062;-78
2023/04/16 07:49:05;;;;;;;8.02;3.42;;;;;;;14.96;46.39;94691.03;5018153;28;20084;-79
2023/04/16 07:51:31;;;;;;;11.63;3.90;;;;;;;15.29;46.61;94718.91;5017868;28;20030;-79
2023/04/16 07:53:57;;;;;;;12.90;3.70;;;;;;;15.07;47.61;94705.69;5019460;28;20121;-78
2023/04/16 07:56:23;;;;;;;11.70;3.17;;;;;;;14.82;47.11;94629.78;5018778;28;20461;-78
2023/04/16 07:58:48;;;;;;;12.40;3.25;;;;;;;14.97;46.03;94652.56;5017715;28;20041;-79
2023/04/16 08:01:14;;;;;;;8.50;3.50;;;;;;;15.23;46.88;94696.13;5019382;28;20038;-79
2023/04/16 08:03:40;;;;;;;10.93;3.20;;;;;;;14.29;47.60;94574.75;5017181;28;20124;-79
2023/04/16 08:06:06;;;;;;;10.00;3.85;;;;;;;15.44;47.42;94723.78;5017086;28;20049;-79
2023/04/16 08:08:31;;;;;;;11.10;3.88;;;;;;;15.35;46.70;94680.22;5034646;28;20083;-79
2023/04/16 08:10:57;;;;;;;14.02;3.88;;;;;;;15.34;48.30;94686.66;5037139;28;20048;-79
2023/04/16 08:13:22;;;;;;;13.00;3.20;;;;;;;15.34;47.70;94678.66;5030316;28;20022;-79
2023/04/16 08:15:48;;;;;;;8.48;3.58;;;;;;;15.44;46.32;94669.53;5016575;28;20155;-79
2023/04/16 08:18:14;;;;;;;12.40;3.78;;;;;;;15.74;46.59;94705.22;5017795;28;20519;-79
2023/04/16 08:20:40;;;;;;;11.77;3.72;;;;;;;15.45;47.42;94665.78;5027545;28;20550;-79
2023/04/16 08:23:06;;;;;;;11.68;3.72;;;;;;;15.60;46.12;94700.06;5037085;28;20021;-79
2023/04/16 08:25:31;;;;;;;11.23;2.78;;;;;;;15.50;45.23;94651.44;5019449;28;20125;-79
2023/04/16 08:27:57;;;;;;;13.02;3.90;;;;;;;15.61;45.55;94658.09;5037058;28;20523;-79
2023/04/16 08:30:22;;;;;;;11.27;3.50;;;;;;;15.80;44.76;94679.88;5037655;28;20026;-79
2023/04/16 08:32:48;;;;;;;8.70;2.88;;;;;;;16.08;44.38;94702.50;5019310;28;20117;-79
2023/04/16 08:35:14;;;;;;;6.55;2.95;;;;;;;15.97;44.88;94657.69;5020576;28;20030;-79
2023/04/16 08:37:39;;;;;;;14.93;2.30;;;;;;;15.64;44.93;94586.03;5018945;28;20092;-79
2023/04/16 08:40:05;;;;;;;15.52;3.05;;;;;;;16.13;44.35;94656.06;5036793;28;20041;-79
2023/04/16 08:42:39;;;;;;;7.20;2.60;;;;;;;15.98;43.17;94603.88;5018478;28;20033;-78
2023/04/16 08:45:14;;;;;;;7.05;2.45;;;;;;;16.75;42.29;94684.91;5019899;28;20065;-79
2023/04/16 08:47:40;;;;;;;9.52;2.60;;;;;;;16.65;42.41;94656.63;5019780;28;20503;-79
2023/04/16 08:50:10;;;;;;;10.88;3.28;;;;;;;16.75;43.26;94688.38;5011252;28;20033;-79
2023/04/16 08:52:42;;;;;;;10.38;3.45;;;;;;;16.93;43.81;94692.53;5008486;28;20038;-79
2023/04/16 08:55:15;;;;;;;9.85;3.28;;;;;;;16.47;43.33;94610.41;5019757;28;20057;-79
2023/04/16 08:57:48;;;;;;;11.68;3.60;;;;;;;16.63;42.23;94632.06;5005069;28;20045;-79
2023/04/16 09:00:15;;;;;;;9.38;3.55;;;;;;;17.05;43.37;94678.44;4999259;28;20034;-80
2023/04/16 09:02:41;;;;;;;8.93;3.40;;;;;;;17.25;42.90;94683.00;5017713;28;20057;-79
2023/04/16 09:05:08;;;;;;;11.15;3.45;;;;;;;16.87;42.40;94623.41;5018859;28;20464;-79
2023/04/16 09:07:34;;;;;;;6.70;2.75;;;;;;;16.88;42.27;94636.47;5034989;28;20045;-80
2023/04/16 09:10:00;;;;;;;14.43;4.32;;;;;;;16.69;42.23;94635.34;5017049;28;20042;-79
2023/04/16 09:12:26;;;;;;;10.52;2.92;;;;;;;16.06;41.84;94544.22;5000331;28;20022;-79
2023/04/16 09:14:52;;;;;;;8.32;2.70;;;;;;;16.30;41.34;94550.84;5017399;28;20049;-79
2023/04/16 09:17:18;;;;;;;8.57;3.15;;;;;;;16.68;42.49;94666.69;4998671;28;20557;-79
2023/04/16 09:19:46;;;;;;;7.35;2.78;;;;;;;16.83;42.21;94651.94;5017079;28;20574;-79
2023/04/16 09:22:12;;;;;;;11.48;3.00;;;;;;;16.91;42.58;94665.28;4999125;28;20034;-79
2023/04/16 09:24:38;;;;;;;7.88;2.72;;;;;;;16.33;42.57;94595.69;5009210;28;20044;-79
2023/04/16 09:27:03;;;;;;;8.77;2.65;;;;;;;16.23;42.23;94586.16;5021738;28;20032;-80
2023/04/16 09:29:37;;;;;;;10.82;2.85;;;;;;;16.56;42.65;94639.78;5041520;28;20081;-80
2023/04/16 09:32:08;;;;;;;7.70;2.47;;;;;;;16.87;42.20;94677.75;5007174;28;20033;-80
2023/04/16 09:34:34;;;;;;;7.07;3.53;;;;;;;16.47;41.95;94596.25;5026373;28;20030;-80
2023/04/16 09:37:16;;;;;;;8.15;3.38;;;;;;;17.13;42.02;94664.19;5037576;28;20292;-80
2023/04/16 09:39:42;;;;;;;9.88;3.35;;;;;;;17.10;41.23;94634.56;5020878;28;20072;-80
2023/04/16 09:42:08;;;;;;;10.75;3.10;;;;;;;17.23;40.74;94631.66;5002821;28;20033;-80
2023/04/16 09:44:38;;;;;;;8.25;2.92;;;;;;;16.78;40.85;94603.97;5025640;28;20022;-80
2023/04/16 09:47:08;;;;;;;7.47;3.10;;;;;;;17.01;40.64;94607.88;5015849;28;20034;-80
2023/04/16 09:49:43;;;;;;;8.95;3.45;;;;;;;16.95;41.40;94623.34;5003092;28;20021;-80
2023/04/16 09:52:28;;;;;;;9.07;3.47;;;;;;;17.35;40.49;94658.50;5020475;28;20424;-80
2023/04/16 09:54:55;;;;;;;9.00;2.63;;;;;;;17.11;40.57;94636.94;5003271;28;20054;-80
2023/04/16 09:57:22;;;;;;;8.40;2.63;;;;;;;17.22;40.31;94614.00;5002139;28;20037;-80
2023/04/16 10:00:09;;;;;;;8.25;2.60;;;;;;;17.46;40.25;94648.16;5020423;28;20472;-81
2023/04/16 10:02:37;;;;;;;6.75;2.65;;;;;;;17.29;39.90;94600.06;5022826;28;20037;-80
2023/04/16 10:05:03;;;;;;;8.15;2.92;;;;;;;17.51;40.13;94639.91;5023202;28;20037;-80
2023/04/16 10:07:33;;;;;;;5.57;2.50;;;;;;;17.56;40.51;94602.16;5040389;28;20080;-80
2023/04/16 10:09:58;;;;;;;6.95;2.38;;;;;;;17.78;39.50;94609.06;5039900;28;20048;-80
2023/04/16 10:12:24;;;;;;;6.15;2.53;;;;;;;18.23;39.16;94640.47;5039456;28;20034;-80
2023/04/16 10:14:49;;;;;;;15.50;2.80;;;;;;;18.26;38.90;94637.09;5021283;28;20032;-80
2023/04/16 10:17:15;;;;;;;6.40;2.67;;;;;;;18.22;38.43;94604.78;5021562;28;20045;-80
2023/04/16 10:19:41;;;;;;;5.88;2.47;;;;;;;18.55;38.43;94622.66;5021141;28;20033;-80
2023/04/16 10:22:06;;;;;;;11.07;2.42;;;;;;;18.58;39.40;94601.31;5040499;28;20091;-80
2023/04/16 10:24:33;;;;;;;7.63;2.90;;;;;;;18.97;38.43;94617.81;5020512;28;20037;-78
2023/04/16 10:26:59;;;;;;;8.07;2.92;;;;;;;18.60;37.67;94617.88;5020670;28;20036;-78
2023/04/16 10:29:27;;;;;;;7.80;2.55;;;;;;;18.24;38.10;94553.44;5021585;28;20530;-80
2023/04/16 10:31:53;;;;;;;11.02;3.30;;;;;;;18.50;37.41;94591.44;5000972;28;20038;-79
2023/04/16 10:34:20;;;;;;;7.07;2.30;;;;;;;17.86;37.78;94511.63;5038719;28;20022;-79
2023/04/16 10:36:53;;;;;;;7.65;2.58;;;;;;;19.00;37.38;94611.75;5017814;28;20037;-79
2023/04/16 10:39:23;;;;;;;13.38;2.90;;;;;;;19.06;37.04;94597.78;5023367;28;20037;-79
2023/04/16 10:41:50;;;;;;;7.53;2.70;;;;;;;19.22;37.34;94614.72;5020817;28;20041;-79
2023/04/16 10:44:18;;;;;;;7.22;2.50;;;;;;;19.96;36.00;94615.97;5030019;28;20041;-79
2023/04/16 10:46:49;;;;;;;9.95;2.60;;;;;;;20.67;35.06;94606.19;5019330;28;20120;-79
2023/04/16 10:49:19;;;;;;;5.53;2.67;;;;;;;21.21;33.85;94598.09;5019449;28;20049;-78
2023/04/16 10:52:08;;;;;;;5.75;2.13;;;;;;;21.80;32.33;94578.84;5001614;28;20065;-78
2023/04/16 10:54:37;;;;;;;10.57;2.38;;;;;;;21.84;31.60;94606.66;5000971;28;20037;-78
2023/04/16 10:57:04;;;;;;;5.28;1.90;;;;;;;21.81;30.65;94596.59;5018358;28;20033;-80
2023/04/16 10:59:33;;;;;;;10.18;2.25;;;;;;;21.75;31.29;94600.69;5019068;28;20036;-79
2023/04/16 11:02:00;;;;;;;7.13;2.30;;;;;;;22.25;30.44;94593.50;5001046;28;20092;-79
2023/04/16 11:04:36;;;;;;;6.63;2.35;;;;;;;22.68;30.43;94567.91;5001410;28;20566;-79
2023/04/16 11:07:12;;;;;;;6.25;2.15;;;;;;;23.39;29.88;94593.22;5000458;28;20482;-79
2023/04/16 11:10:00;;;;;;;5.07;2.17;;;;;;;23.83;28.44;94593.34;5000693;28;20105;-79
2023/04/16 11:12:37;;;;;;;5.25;2.05;;;;;;;24.01;28.07;94593.53;5001348;28;20038;-79
2023/04/16 11:15:13;;;;;;;5.70;2.08;;;;;;;23.42;28.40;94527.56;5018753;28;20034;-79
2023/04/16 11:17:46;;;;;;;7.60;2.35;;;;;;;23.53;28.53;94530.38;5018782;28;20029;-80
2023/04/16 11:20:16;;;;;;;7.80;2.65;;;;;;;23.18;28.90;94577.50;5000374;28;20030;-79
2023/04/16 11:22:44;;;;;;;7.35;2.40;;;;;;;22.93;29.53;94546.66;5000736;28;20032;-80
2023/04/16 11:25:09;;;;;;;7.00;2.10;;;;;;;23.04;30.04;94563.78;5000474;28;20037;-79